This is the latest recevied weather packets stored in our database for station/object F4FEB-13. If no packets are shown the sender has not sent any weather packets the latest 10 day(s).
| Time | Temp. | Humidity | Pressure | Rain* | Wind** | Luminosity | Snow |
|---|---|---|---|---|---|---|---|
| 1777670970 | 15.56° C | 46% | 1022.5 hPa | 0 mm | - | - | - |
| 1777670372 | 16.11° C | 46% | 1022.3 hPa | 0 mm | - | - | - |
| 1777670070 | 16.11° C | 46% | 1022.3 hPa | 0 mm | - | - | - |
| 1777669470 | 16.11° C | 45% | 1022.3 hPa | 0 mm | - | - | - |
| 1777669170 | 16.11° C | 45% | 1022.3 hPa | 0 mm | - | - | - |
| 1777668870 | 15.56° C | 46% | 1022.3 hPa | 0 mm | - | - | - |
| 1777667070 | 16.11° C | 47% | 1022.5 hPa | 0 mm | - | - | - |
| 1777665570 | 15.56° C | 48% | 1022.1 hPa | 0 mm | - | - | - |
| 1777661974 | 16.67° C | 46% | 1021.8 hPa | 0 mm | - | - | - |
| 1777661070 | 16.67° C | 45% | 1021.7 hPa | 0 mm | - | - | - |
| 1777660770 | 16.67° C | 45% | 1021.6 hPa | 0 mm | - | - | - |
| 1777660470 | 16.67° C | 45% | 1021.6 hPa | 0 mm | - | - | - |
| 1777660170 | 17.22° C | 44% | 1021.7 hPa | 0 mm | - | - | - |
| 1777659274 | 17.22° C | 43% | 1021.6 hPa | 0 mm | - | - | - |
| 1777655070 | 20.56° C | 38% | 1021.4 hPa | 0 mm | - | - | - |
| 1777653570 | 21.11° C | 40% | 1021.4 hPa | 0 mm | - | - | - |
| 1777652670 | 21.11° C | 38% | 1021.4 hPa | 0 mm | - | - | - |
| 1777651770 | 21.11° C | 38% | 1021.5 hPa | 0 mm | - | - | - |
| 1777651470 | 21.11° C | 40% | 1021.5 hPa | 0 mm | - | - | - |
| 1777649970 | 21.11° C | 42% | 1021.6 hPa | 0 mm | - | - | - |
| 1777649670 | 21.11° C | 41% | 1021.6 hPa | 0 mm | - | - | - |
| 1777649370 | 21.11° C | 41% | 1021.7 hPa | 0 mm | - | - | - |
| 1777649070 | 21.11° C | 41% | 1021.7 hPa | 0 mm | - | - | - |
| 1777648770 | 21.11° C | 42% | 1021.7 hPa | 0 mm | - | - | - |
| 1777648470 | 21.11° C | 41% | 1021.8 hPa | 0 mm | - | - | - |
* Rain latest hour (hover to see other rain measurements)
** Current wind speed in m/s (hover to see current wind gust speed)